METAR Data

Data at: 1115 UTC 21 Apr 2021

METAR for:KIJD (Willimantic/Windhan, CT, US)
Text:KIJD 211052Z AUTO 00000KT 10SM BKN080 09/07 A2981 RMK AO2 SLP093 T00940067
Temperature: 9.4°C ( 49°F)
Dewpoint: 6.7°C ( 44°F) [RH = 83%]
Pressure (altimeter):29.81 inches Hg (1009.6 mb) [Sea level pressure: 1009.3 mb]
Winds:calm
Visibility:10 or more sm (16+ km)
Ceiling:8000 feet AGL
Clouds: broken clouds at 8000 feet AGL
QC Flag:automated observation with no human augmentation